Avon Heights, Pennsylvania
Current Conditions -  °F | °C
As of 10:58 PM on Friday 19 Dec 2014 (Local Time) from KMUI Reporting Station
Overcast Overcast  
Wind Chill: 25°   Ceiling: 3900
Heat Index: 32°   Visibility: 10mi
Dew Point: 20°   Wind: 8mph
Humidity: 60%   Direction: 300°WNW
Pressure: 30.21"   Gusts: NA
Location:  40.2957°N, 76.4189°W
Report Text: KMUI 200358Z AUTO 30007KT 10SM OVC039 00/M07 A3021 RMK AO2 SLP238 T00021067
Loading
Personal Weather Stations






























Interactive Weather Map New forecast layout! Learn more

10-Day Weather Forecast

Advertisements
Track Severe Weather on mobile